sensor_id;sensor_type;location;lat;lon;timestamp;P1;durP1;ratioP1;P2;durP2;ratioP2
11761;SDS011;5938;47.098;15.474;2024-03-25T00:02:00;35.30;;;6.00;;
11761;SDS011;5938;47.098;15.474;2024-03-25T00:06:02;35.03;;;6.00;;
11761;SDS011;5938;47.098;15.474;2024-03-25T00:10:06;36.10;;;5.40;;
11761;SDS011;5938;47.098;15.474;2024-03-25T00:14:10;34.20;;;4.80;;
11761;SDS011;5938;47.098;15.474;2024-03-25T00:18:12;34.40;;;5.50;;
11761;SDS011;5938;47.098;15.474;2024-03-25T00:22:15;34.10;;;4.60;;
11761;SDS011;5938;47.098;15.474;2024-03-25T00:26:17;34.30;;;5.07;;
11761;SDS011;5938;47.098;15.474;2024-03-25T00:30:21;33.90;;;5.43;;
11761;SDS011;5938;47.098;15.474;2024-03-25T00:34:24;34.43;;;6.10;;
11761;SDS011;5938;47.098;15.474;2024-03-25T00:38:27;35.57;;;5.73;;
11761;SDS011;5938;47.098;15.474;2024-03-25T00:42:29;34.57;;;5.53;;
11761;SDS011;5938;47.098;15.474;2024-03-25T00:46:33;35.27;;;5.97;;
11761;SDS011;5938;47.098;15.474;2024-03-25T00:50:35;34.57;;;6.63;;
11761;SDS011;5938;47.098;15.474;2024-03-25T00:54:37;35.83;;;6.23;;
11761;SDS011;5938;47.098;15.474;2024-03-25T00:58:39;36.40;;;6.43;;
11761;SDS011;5938;47.098;15.474;2024-03-25T01:02:43;34.43;;;6.17;;
11761;SDS011;5938;47.098;15.474;2024-03-25T01:06:45;34.23;;;5.03;;
11761;SDS011;5938;47.098;15.474;2024-03-25T01:10:47;35.77;;;6.87;;
11761;SDS011;5938;47.098;15.474;2024-03-25T01:14:51;47.50;;;8.03;;
11761;SDS011;5938;47.098;15.474;2024-03-25T01:18:55;39.17;;;6.87;;
11761;SDS011;5938;47.098;15.474;2024-03-25T01:22:58;37.33;;;6.60;;
11761;SDS011;5938;47.098;15.474;2024-03-25T01:27:01;33.70;;;5.10;;
11761;SDS011;5938;47.098;15.474;2024-03-25T01:31:03;36.20;;;5.60;;
11761;SDS011;5938;47.098;15.474;2024-03-25T01:35:08;34.40;;;5.53;;
11761;SDS011;5938;47.098;15.474;2024-03-25T01:39:11;41.47;;;6.10;;
11761;SDS011;5938;47.098;15.474;2024-03-25T01:43:14;38.93;;;5.67;;
11761;SDS011;5938;47.098;15.474;2024-03-25T01:47:17;38.73;;;6.10;;
11761;SDS011;5938;47.098;15.474;2024-03-25T01:51:21;37.33;;;5.90;;
11761;SDS011;5938;47.098;15.474;2024-03-25T01:55:25;38.67;;;7.40;;
11761;SDS011;5938;47.098;15.474;2024-03-25T01:59:30;37.30;;;5.93;;
11761;SDS011;5938;47.098;15.474;2024-03-25T02:03:32;34.07;;;5.30;;
11761;SDS011;5938;47.098;15.474;2024-03-25T02:07:36;36.77;;;5.33;;
11761;SDS011;5938;47.098;15.474;2024-03-25T02:11:39;34.40;;;5.87;;
11761;SDS011;5938;47.098;15.474;2024-03-25T02:15:42;34.10;;;5.30;;
11761;SDS011;5938;47.098;15.474;2024-03-25T02:19:45;33.77;;;5.60;;
11761;SDS011;5938;47.098;15.474;2024-03-25T02:23:49;34.90;;;5.50;;
11761;SDS011;5938;47.098;15.474;2024-03-25T02:27:59;35.27;;;5.00;;
11761;SDS011;5938;47.098;15.474;2024-03-25T02:32:01;41.73;;;6.37;;
11761;SDS011;5938;47.098;15.474;2024-03-25T02:36:04;34.50;;;4.57;;
11761;SDS011;5938;47.098;15.474;2024-03-25T02:40:07;32.57;;;4.40;;
11761;SDS011;5938;47.098;15.474;2024-03-25T02:44:13;33.77;;;3.73;;
11761;SDS011;5938;47.098;15.474;2024-03-25T02:48:15;41.60;;;5.27;;
11761;SDS011;5938;47.098;15.474;2024-03-25T02:52:18;35.17;;;4.77;;
11761;SDS011;5938;47.098;15.474;2024-03-25T02:56:21;34.90;;;5.17;;
11761;SDS011;5938;47.098;15.474;2024-03-25T03:00:23;35.07;;;4.83;;
11761;SDS011;5938;47.098;15.474;2024-03-25T03:04:26;33.47;;;5.17;;
11761;SDS011;5938;47.098;15.474;2024-03-25T03:08:28;34.07;;;4.40;;
11761;SDS011;5938;47.098;15.474;2024-03-25T03:12:31;33.47;;;4.63;;
11761;SDS011;5938;47.098;15.474;2024-03-25T03:16:36;36.40;;;5.00;;
11761;SDS011;5938;47.098;15.474;2024-03-25T03:20:39;35.70;;;4.77;;
11761;SDS011;5938;47.098;15.474;2024-03-25T03:24:41;33.90;;;4.87;;
11761;SDS011;5938;47.098;15.474;2024-03-25T03:28:43;34.77;;;4.87;;
11761;SDS011;5938;47.098;15.474;2024-03-25T03:32:47;40.70;;;6.20;;
11761;SDS011;5938;47.098;15.474;2024-03-25T03:36:50;35.10;;;5.37;;
11761;SDS011;5938;47.098;15.474;2024-03-25T03:40:56;35.40;;;4.80;;
11761;SDS011;5938;47.098;15.474;2024-03-25T03:44:59;36.03;;;4.47;;
11761;SDS011;5938;47.098;15.474;2024-03-25T03:49:03;35.63;;;4.50;;
11761;SDS011;5938;47.098;15.474;2024-03-25T03:53:05;35.70;;;5.37;;
11761;SDS011;5938;47.098;15.474;2024-03-25T03:57:07;34.17;;;4.67;;
11761;SDS011;5938;47.098;15.474;2024-03-25T04:01:14;34.07;;;4.87;;
11761;SDS011;5938;47.098;15.474;2024-03-25T04:05:18;33.70;;;3.83;;
11761;SDS011;5938;47.098;15.474;2024-03-25T04:09:21;34.40;;;4.57;;
11761;SDS011;5938;47.098;15.474;2024-03-25T04:13:24;35.00;;;3.90;;
11761;SDS011;5938;47.098;15.474;2024-03-25T04:17:26;33.40;;;3.90;;
11761;SDS011;5938;47.098;15.474;2024-03-25T04:21:30;32.70;;;3.53;;
11761;SDS011;5938;47.098;15.474;2024-03-25T04:25:33;34.77;;;5.07;;
11761;SDS011;5938;47.098;15.474;2024-03-25T04:29:38;33.37;;;3.57;;
11761;SDS011;5938;47.098;15.474;2024-03-25T04:33:40;37.83;;;6.30;;
11761;SDS011;5938;47.098;15.474;2024-03-25T04:37:45;39.03;;;7.57;;
11761;SDS011;5938;47.098;15.474;2024-03-25T04:41:46;38.10;;;6.03;;
11761;SDS011;5938;47.098;15.474;2024-03-25T04:45:48;37.00;;;7.27;;
11761;SDS011;5938;47.098;15.474;2024-03-25T04:49:49;36.30;;;6.47;;
11761;SDS011;5938;47.098;15.474;2024-03-25T04:53:52;38.30;;;9.17;;
11761;SDS011;5938;47.098;15.474;2024-03-25T04:57:53;38.47;;;8.60;;
11761;SDS011;5938;47.098;15.474;2024-03-25T05:01:55;36.37;;;6.83;;
11761;SDS011;5938;47.098;15.474;2024-03-25T05:05:56;34.63;;;6.90;;
11761;SDS011;5938;47.098;15.474;2024-03-25T05:09:59;35.40;;;6.97;;
11761;SDS011;5938;47.098;15.474;2024-03-25T05:14:01;34.13;;;6.20;;
11761;SDS011;5938;47.098;15.474;2024-03-25T05:18:03;33.70;;;6.10;;
11761;SDS011;5938;47.098;15.474;2024-03-25T05:22:05;37.77;;;6.13;;
11761;SDS011;5938;47.098;15.474;2024-03-25T05:26:08;37.60;;;9.13;;
11761;SDS011;5938;47.098;15.474;2024-03-25T05:30:10;36.33;;;7.03;;
11761;SDS011;5938;47.098;15.474;2024-03-25T05:34:12;34.50;;;6.70;;
11761;SDS011;5938;47.098;15.474;2024-03-25T05:38:14;33.57;;;5.10;;
11761;SDS011;5938;47.098;15.474;2024-03-25T05:42:17;36.47;;;6.77;;
11761;SDS011;5938;47.098;15.474;2024-03-25T05:46:18;36.83;;;5.87;;
11761;SDS011;5938;47.098;15.474;2024-03-25T05:50:20;34.50;;;5.93;;
11761;SDS011;5938;47.098;15.474;2024-03-25T05:54:21;37.33;;;5.67;;
11761;SDS011;5938;47.098;15.474;2024-03-25T05:58:24;34.30;;;5.30;;
11761;SDS011;5938;47.098;15.474;2024-03-25T06:02:25;35.07;;;5.80;;
11761;SDS011;5938;47.098;15.474;2024-03-25T06:06:27;33.67;;;5.30;;
11761;SDS011;5938;47.098;15.474;2024-03-25T06:10:28;43.47;;;7.93;;
11761;SDS011;5938;47.098;15.474;2024-03-25T06:14:31;39.77;;;9.57;;
11761;SDS011;5938;47.098;15.474;2024-03-25T06:18:33;35.40;;;6.70;;
11761;SDS011;5938;47.098;15.474;2024-03-25T06:22:34;35.40;;;6.90;;
11761;SDS011;5938;47.098;15.474;2024-03-25T06:26:35;35.93;;;7.10;;
11761;SDS011;5938;47.098;15.474;2024-03-25T06:30:39;34.67;;;6.53;;
11761;SDS011;5938;47.098;15.474;2024-03-25T06:34:59;52.27;;;9.00;;
11761;SDS011;5938;47.098;15.474;2024-03-25T06:39:01;36.87;;;7.70;;
11761;SDS011;5938;47.098;15.474;2024-03-25T06:43:03;37.40;;;7.33;;
11761;SDS011;5938;47.098;15.474;2024-03-25T06:47:06;36.83;;;7.73;;
11761;SDS011;5938;47.098;15.474;2024-03-25T06:51:07;39.63;;;8.00;;
11761;SDS011;5938;47.098;15.474;2024-03-25T06:55:09;37.80;;;9.00;;
11761;SDS011;5938;47.098;15.474;2024-03-25T06:59:10;34.30;;;5.00;;
11761;SDS011;5938;47.098;15.474;2024-03-25T07:03:13;47.47;;;42.47;;
11761;SDS011;5938;47.098;15.474;2024-03-25T07:07:15;34.70;;;4.83;;
11761;SDS011;5938;47.098;15.474;2024-03-25T07:11:17;33.87;;;4.93;;
11761;SDS011;5938;47.098;15.474;2024-03-25T07:15:19;34.60;;;5.33;;
11761;SDS011;5938;47.098;15.474;2024-03-25T07:19:22;33.10;;;5.93;;
11761;SDS011;5938;47.098;15.474;2024-03-25T07:23:24;32.40;;;5.43;;
11761;SDS011;5938;47.098;15.474;2024-03-25T07:27:27;37.63;;;15.13;;
11761;SDS011;5938;47.098;15.474;2024-03-25T07:31:29;31.90;;;5.50;;
11761;SDS011;5938;47.098;15.474;2024-03-25T07:35:32;32.87;;;5.33;;
11761;SDS011;5938;47.098;15.474;2024-03-25T07:39:34;33.00;;;6.97;;
11761;SDS011;5938;47.098;15.474;2024-03-25T07:43:35;30.63;;;7.37;;
11761;SDS011;5938;47.098;15.474;2024-03-25T07:47:37;31.90;;;7.13;;
11761;SDS011;5938;47.098;15.474;2024-03-25T07:51:41;34.97;;;6.20;;
11761;SDS011;5938;47.098;15.474;2024-03-25T07:55:43;29.60;;;5.10;;
11761;SDS011;5938;47.098;15.474;2024-03-25T07:59:44;30.10;;;5.73;;
11761;SDS011;5938;47.098;15.474;2024-03-25T08:03:46;33.50;;;9.30;;
11761;SDS011;5938;47.098;15.474;2024-03-25T08:07:49;31.87;;;8.70;;
11761;SDS011;5938;47.098;15.474;2024-03-25T08:11:51;32.00;;;4.90;;
11761;SDS011;5938;47.098;15.474;2024-03-25T08:15:53;30.10;;;5.60;;
11761;SDS011;5938;47.098;15.474;2024-03-25T08:19:55;28.20;;;4.60;;
11761;SDS011;5938;47.098;15.474;2024-03-25T08:23:58;29.10;;;5.43;;
11761;SDS011;5938;47.098;15.474;2024-03-25T08:27:59;28.03;;;4.53;;
11761;SDS011;5938;47.098;15.474;2024-03-25T08:32:01;28.27;;;4.20;;
11761;SDS011;5938;47.098;15.474;2024-03-25T08:36:03;28.80;;;4.40;;
11761;SDS011;5938;47.098;15.474;2024-03-25T08:40:08;28.93;;;4.27;;
11761;SDS011;5938;47.098;15.474;2024-03-25T08:44:10;27.17;;;3.87;;
11761;SDS011;5938;47.098;15.474;2024-03-25T08:48:11;30.33;;;4.70;;
11761;SDS011;5938;47.098;15.474;2024-03-25T08:52:13;26.70;;;3.90;;
11761;SDS011;5938;47.098;15.474;2024-03-25T08:56:16;24.80;;;3.80;;
11761;SDS011;5938;47.098;15.474;2024-03-25T09:00:17;23.23;;;3.20;;
11761;SDS011;5938;47.098;15.474;2024-03-25T09:04:19;21.33;;;3.23;;
11761;SDS011;5938;47.098;15.474;2024-03-25T09:08:20;20.20;;;2.10;;
11761;SDS011;5938;47.098;15.474;2024-03-25T09:12:23;19.43;;;1.63;;
11761;SDS011;5938;47.098;15.474;2024-03-25T09:16:25;18.67;;;1.70;;
11761;SDS011;5938;47.098;15.474;2024-03-25T09:20:26;19.93;;;2.30;;
11761;SDS011;5938;47.098;15.474;2024-03-25T09:24:28;18.10;;;1.70;;
11761;SDS011;5938;47.098;15.474;2024-03-25T09:28:31;19.43;;;1.60;;
11761;SDS011;5938;47.098;15.474;2024-03-25T09:32:33;16.93;;;1.60;;
11761;SDS011;5938;47.098;15.474;2024-03-25T09:36:34;16.70;;;1.60;;
11761;SDS011;5938;47.098;15.474;2024-03-25T09:40:36;17.17;;;1.90;;
11761;SDS011;5938;47.098;15.474;2024-03-25T09:44:40;18.07;;;1.80;;
11761;SDS011;5938;47.098;15.474;2024-03-25T09:48:41;17.33;;;1.90;;
11761;SDS011;5938;47.098;15.474;2024-03-25T09:52:43;22.63;;;2.50;;
11761;SDS011;5938;47.098;15.474;2024-03-25T09:56:44;18.90;;;2.00;;
11761;SDS011;5938;47.098;15.474;2024-03-25T10:00:47;18.37;;;1.80;;
11761;SDS011;5938;47.098;15.474;2024-03-25T10:04:49;17.53;;;2.00;;
11761;SDS011;5938;47.098;15.474;2024-03-25T10:08:53;17.70;;;1.93;;
11761;SDS011;5938;47.098;15.474;2024-03-25T10:12:54;17.50;;;2.53;;
11761;SDS011;5938;47.098;15.474;2024-03-25T10:16:58;18.17;;;2.10;;
11761;SDS011;5938;47.098;15.474;2024-03-25T10:20:59;18.80;;;1.47;;
11761;SDS011;5938;47.098;15.474;2024-03-25T10:25:01;18.00;;;1.60;;
11761;SDS011;5938;47.098;15.474;2024-03-25T10:29:02;16.83;;;1.70;;
11761;SDS011;5938;47.098;15.474;2024-03-25T10:33:06;17.00;;;2.20;;
11761;SDS011;5938;47.098;15.474;2024-03-25T10:37:08;16.33;;;1.50;;
11761;SDS011;5938;47.098;15.474;2024-03-25T10:41:11;17.50;;;1.40;;
11761;SDS011;5938;47.098;15.474;2024-03-25T10:45:17;16.27;;;1.07;;
11761;SDS011;5938;47.098;15.474;2024-03-25T10:49:21;16.37;;;1.47;;
11761;SDS011;5938;47.098;15.474;2024-03-25T10:53:32;17.10;;;1.30;;
11761;SDS011;5938;47.098;15.474;2024-03-25T10:57:37;18.57;;;1.27;;
11761;SDS011;5938;47.098;15.474;2024-03-25T11:01:39;17.90;;;1.23;;
11761;SDS011;5938;47.098;15.474;2024-03-25T11:05:41;18.00;;;1.27;;
11761;SDS011;5938;47.098;15.474;2024-03-25T11:09:44;17.30;;;1.17;;
11761;SDS011;5938;47.098;15.474;2024-03-25T11:13:45;15.73;;;1.10;;
11761;SDS011;5938;47.098;15.474;2024-03-25T11:17:48;18.30;;;1.53;;
11761;SDS011;5938;47.098;15.474;2024-03-25T11:21:51;22.60;;;2.20;;
11761;SDS011;5938;47.098;15.474;2024-03-25T11:25:55;13.57;;;1.10;;
11761;SDS011;5938;47.098;15.474;2024-03-25T11:29:57;14.10;;;1.10;;
11761;SDS011;5938;47.098;15.474;2024-03-25T11:34:02;14.70;;;1.30;;
11761;SDS011;5938;47.098;15.474;2024-03-25T11:38:06;14.50;;;1.10;;
11761;SDS011;5938;47.098;15.474;2024-03-25T11:42:07;14.00;;;0.90;;
11761;SDS011;5938;47.098;15.474;2024-03-25T11:46:11;30.87;;;3.10;;
11761;SDS011;5938;47.098;15.474;2024-03-25T11:50:17;14.40;;;1.00;;
11761;SDS011;5938;47.098;15.474;2024-03-25T11:54:21;13.70;;;1.00;;
11761;SDS011;5938;47.098;15.474;2024-03-25T11:58:23;13.50;;;1.10;;
11761;SDS011;5938;47.098;15.474;2024-03-25T12:02:25;13.87;;;1.10;;
11761;SDS011;5938;47.098;15.474;2024-03-25T12:06:27;13.87;;;1.10;;
11761;SDS011;5938;47.098;15.474;2024-03-25T12:10:30;12.97;;;1.10;;
11761;SDS011;5938;47.098;15.474;2024-03-25T12:14:50;12.20;;;1.10;;
11761;SDS011;5938;47.098;15.474;2024-03-25T12:18:52;11.87;;;1.30;;
11761;SDS011;5938;47.098;15.474;2024-03-25T12:22:53;12.40;;;1.10;;
11761;SDS011;5938;47.098;15.474;2024-03-25T12:26:56;13.20;;;1.10;;
11761;SDS011;5938;47.098;15.474;2024-03-25T12:30:58;14.10;;;1.30;;
11761;SDS011;5938;47.098;15.474;2024-03-25T12:35:00;15.40;;;1.50;;
11761;SDS011;5938;47.098;15.474;2024-03-25T12:39:01;14.23;;;1.83;;
11761;SDS011;5938;47.098;15.474;2024-03-25T12:43:04;14.90;;;1.43;;
11761;SDS011;5938;47.098;15.474;2024-03-25T12:47:06;16.40;;;1.50;;
11761;SDS011;5938;47.098;15.474;2024-03-25T12:51:11;17.67;;;1.67;;
11761;SDS011;5938;47.098;15.474;2024-03-25T12:55:14;18.07;;;1.57;;
11761;SDS011;5938;47.098;15.474;2024-03-25T12:59:18;18.60;;;1.87;;
11761;SDS011;5938;47.098;15.474;2024-03-25T13:03:19;23.77;;;2.40;;
11761;SDS011;5938;47.098;15.474;2024-03-25T13:07:21;19.00;;;1.53;;
11761;SDS011;5938;47.098;15.474;2024-03-25T13:11:22;18.87;;;2.00;;
11761;SDS011;5938;47.098;15.474;2024-03-25T13:15:25;19.00;;;1.60;;
11761;SDS011;5938;47.098;15.474;2024-03-25T13:19:27;18.13;;;1.60;;
11761;SDS011;5938;47.098;15.474;2024-03-25T13:23:28;19.00;;;1.83;;
11761;SDS011;5938;47.098;15.474;2024-03-25T13:27:30;16.73;;;1.50;;
11761;SDS011;5938;47.098;15.474;2024-03-25T13:31:33;15.53;;;1.60;;
11761;SDS011;5938;47.098;15.474;2024-03-25T13:35:34;16.30;;;1.67;;
11761;SDS011;5938;47.098;15.474;2024-03-25T13:39:36;12.40;;;1.40;;
11761;SDS011;5938;47.098;15.474;2024-03-25T13:43:42;12.80;;;1.40;;
11761;SDS011;5938;47.098;15.474;2024-03-25T13:47:45;11.43;;;1.37;;
11761;SDS011;5938;47.098;15.474;2024-03-25T13:51:46;11.53;;;1.60;;
11761;SDS011;5938;47.098;15.474;2024-03-25T13:55:48;11.73;;;1.87;;
11761;SDS011;5938;47.098;15.474;2024-03-25T13:59:50;10.80;;;1.70;;
11761;SDS011;5938;47.098;15.474;2024-03-25T14:03:53;12.50;;;1.70;;
11761;SDS011;5938;47.098;15.474;2024-03-25T14:07:54;15.10;;;1.40;;
11761;SDS011;5938;47.098;15.474;2024-03-25T14:11:56;16.30;;;1.67;;
11761;SDS011;5938;47.098;15.474;2024-03-25T14:15:57;16.80;;;1.83;;
11761;SDS011;5938;47.098;15.474;2024-03-25T14:20:00;15.70;;;1.67;;
11761;SDS011;5938;47.098;15.474;2024-03-25T14:24:04;15.50;;;1.97;;
11761;SDS011;5938;47.098;15.474;2024-03-25T14:28:06;16.80;;;1.80;;
11761;SDS011;5938;47.098;15.474;2024-03-25T14:32:07;16.43;;;2.13;;
11761;SDS011;5938;47.098;15.474;2024-03-25T14:36:10;15.00;;;1.60;;
11761;SDS011;5938;47.098;15.474;2024-03-25T14:40:12;14.50;;;1.57;;
11761;SDS011;5938;47.098;15.474;2024-03-25T14:44:13;13.97;;;1.60;;
11761;SDS011;5938;47.098;15.474;2024-03-25T14:48:15;14.23;;;1.60;;
11761;SDS011;5938;47.098;15.474;2024-03-25T14:52:18;15.93;;;1.70;;
11761;SDS011;5938;47.098;15.474;2024-03-25T14:56:19;15.80;;;1.30;;
11761;SDS011;5938;47.098;15.474;2024-03-25T15:00:21;16.20;;;1.63;;
11761;SDS011;5938;47.098;15.474;2024-03-25T15:04:23;17.60;;;1.80;;
11761;SDS011;5938;47.098;15.474;2024-03-25T15:08:26;18.97;;;2.13;;
11761;SDS011;5938;47.098;15.474;2024-03-25T15:12:28;18.43;;;1.70;;
11761;SDS011;5938;47.098;15.474;2024-03-25T15:16:30;18.77;;;1.80;;
11761;SDS011;5938;47.098;15.474;2024-03-25T15:20:34;19.70;;;2.20;;
11761;SDS011;5938;47.098;15.474;2024-03-25T15:24:37;19.90;;;2.30;;
11761;SDS011;5938;47.098;15.474;2024-03-25T15:28:39;19.90;;;2.13;;
11761;SDS011;5938;47.098;15.474;2024-03-25T15:32:42;19.57;;;2.13;;
11761;SDS011;5938;47.098;15.474;2024-03-25T15:36:44;20.27;;;2.50;;
11761;SDS011;5938;47.098;15.474;2024-03-25T15:40:48;20.03;;;2.30;;
11761;SDS011;5938;47.098;15.474;2024-03-25T15:44:50;19.50;;;1.90;;
11761;SDS011;5938;47.098;15.474;2024-03-25T15:48:52;20.00;;;2.20;;
11761;SDS011;5938;47.098;15.474;2024-03-25T15:52:54;20.20;;;2.10;;
11761;SDS011;5938;47.098;15.474;2024-03-25T15:56:57;19.90;;;2.00;;
11761;SDS011;5938;47.098;15.474;2024-03-25T16:00:59;19.67;;;2.10;;
11761;SDS011;5938;47.098;15.474;2024-03-25T16:05:00;19.53;;;1.70;;
11761;SDS011;5938;47.098;15.474;2024-03-25T16:09:02;20.47;;;2.40;;
11761;SDS011;5938;47.098;15.474;2024-03-25T16:13:05;20.70;;;2.23;;
11761;SDS011;5938;47.098;15.474;2024-03-25T16:17:06;19.63;;;2.03;;
11761;SDS011;5938;47.098;15.474;2024-03-25T16:21:12;20.23;;;2.50;;
11761;SDS011;5938;47.098;15.474;2024-03-25T16:25:14;20.43;;;1.93;;
11761;SDS011;5938;47.098;15.474;2024-03-25T16:29:17;21.23;;;2.20;;
11761;SDS011;5938;47.098;15.474;2024-03-25T16:33:19;21.30;;;3.47;;
11761;SDS011;5938;47.098;15.474;2024-03-25T16:37:20;21.60;;;3.40;;
11761;SDS011;5938;47.098;15.474;2024-03-25T16:41:22;24.20;;;3.10;;
11761;SDS011;5938;47.098;15.474;2024-03-25T16:45:25;22.90;;;2.80;;
11761;SDS011;5938;47.098;15.474;2024-03-25T16:49:26;21.63;;;2.40;;
11761;SDS011;5938;47.098;15.474;2024-03-25T16:53:28;23.07;;;2.53;;
11761;SDS011;5938;47.098;15.474;2024-03-25T16:57:30;22.40;;;2.50;;
11761;SDS011;5938;47.098;15.474;2024-03-25T17:01:33;23.90;;;3.40;;
11761;SDS011;5938;47.098;15.474;2024-03-25T17:05:34;23.13;;;3.60;;
11761;SDS011;5938;47.098;15.474;2024-03-25T17:09:36;23.97;;;3.70;;
11761;SDS011;5938;47.098;15.474;2024-03-25T17:13:38;28.43;;;3.60;;
11761;SDS011;5938;47.098;15.474;2024-03-25T17:17:43;24.30;;;3.20;;
11761;SDS011;5938;47.098;15.474;2024-03-25T17:21:45;27.07;;;3.93;;
11761;SDS011;5938;47.098;15.474;2024-03-25T17:25:47;25.10;;;2.43;;
11761;SDS011;5938;47.098;15.474;2024-03-25T17:29:49;27.30;;;2.10;;
11761;SDS011;5938;47.098;15.474;2024-03-25T17:33:52;23.70;;;1.87;;
11761;SDS011;5938;47.098;15.474;2024-03-25T17:37:53;24.30;;;1.97;;
11761;SDS011;5938;47.098;15.474;2024-03-25T17:41:55;28.40;;;3.03;;
11761;SDS011;5938;47.098;15.474;2024-03-25T17:45:56;33.13;;;5.57;;
11761;SDS011;5938;47.098;15.474;2024-03-25T17:50:00;31.43;;;5.13;;
11761;SDS011;5938;47.098;15.474;2024-03-25T17:54:02;42.43;;;8.90;;
11761;SDS011;5938;47.098;15.474;2024-03-25T17:58:04;31.03;;;4.30;;
11761;SDS011;5938;47.098;15.474;2024-03-25T18:02:05;26.57;;;2.37;;
11761;SDS011;5938;47.098;15.474;2024-03-25T18:06:08;27.50;;;2.40;;
11761;SDS011;5938;47.098;15.474;2024-03-25T18:10:10;27.20;;;2.73;;
11761;SDS011;5938;47.098;15.474;2024-03-25T18:14:11;26.17;;;2.60;;
11761;SDS011;5938;47.098;15.474;2024-03-25T18:18:13;25.23;;;2.20;;
11761;SDS011;5938;47.098;15.474;2024-03-25T18:22:17;26.00;;;2.23;;
11761;SDS011;5938;47.098;15.474;2024-03-25T18:26:18;25.63;;;2.30;;
11761;SDS011;5938;47.098;15.474;2024-03-25T18:30:20;26.40;;;2.40;;
11761;SDS011;5938;47.098;15.474;2024-03-25T18:34:22;28.60;;;2.00;;
11761;SDS011;5938;47.098;15.474;2024-03-25T18:38:25;26.30;;;2.57;;
11761;SDS011;5938;47.098;15.474;2024-03-25T18:42:27;26.13;;;1.97;;
11761;SDS011;5938;47.098;15.474;2024-03-25T18:46:29;26.47;;;2.50;;
11761;SDS011;5938;47.098;15.474;2024-03-25T18:50:32;28.60;;;2.30;;
11761;SDS011;5938;47.098;15.474;2024-03-25T18:54:36;28.93;;;2.50;;
11761;SDS011;5938;47.098;15.474;2024-03-25T18:58:39;27.33;;;2.60;;
11761;SDS011;5938;47.098;15.474;2024-03-25T19:02:41;26.73;;;2.60;;
11761;SDS011;5938;47.098;15.474;2024-03-25T19:06:42;26.53;;;2.20;;
11761;SDS011;5938;47.098;15.474;2024-03-25T19:10:46;26.63;;;2.43;;
11761;SDS011;5938;47.098;15.474;2024-03-25T19:14:48;27.93;;;2.77;;
11761;SDS011;5938;47.098;15.474;2024-03-25T19:18:51;26.03;;;2.20;;
11761;SDS011;5938;47.098;15.474;2024-03-25T19:22:53;28.33;;;3.07;;
11761;SDS011;5938;47.098;15.474;2024-03-25T19:26:57;26.67;;;2.63;;
11761;SDS011;5938;47.098;15.474;2024-03-25T19:30:59;26.90;;;2.53;;
11761;SDS011;5938;47.098;15.474;2024-03-25T19:35:01;28.47;;;3.33;;
11761;SDS011;5938;47.098;15.474;2024-03-25T19:39:03;27.37;;;2.50;;
11761;SDS011;5938;47.098;15.474;2024-03-25T19:43:06;27.90;;;3.13;;
11761;SDS011;5938;47.098;15.474;2024-03-25T19:47:09;27.70;;;3.07;;
11761;SDS011;5938;47.098;15.474;2024-03-25T19:51:11;28.90;;;3.27;;
11761;SDS011;5938;47.098;15.474;2024-03-25T19:55:14;28.87;;;3.37;;
11761;SDS011;5938;47.098;15.474;2024-03-25T19:59:18;27.90;;;3.10;;
11761;SDS011;5938;47.098;15.474;2024-03-25T20:03:21;29.33;;;3.27;;
11761;SDS011;5938;47.098;15.474;2024-03-25T20:07:24;28.60;;;3.30;;
11761;SDS011;5938;47.098;15.474;2024-03-25T20:11:29;29.50;;;3.83;;
11761;SDS011;5938;47.098;15.474;2024-03-25T20:15:35;30.50;;;3.20;;
11761;SDS011;5938;47.098;15.474;2024-03-25T20:19:38;29.27;;;3.00;;
11761;SDS011;5938;47.098;15.474;2024-03-25T20:23:42;30.03;;;2.70;;
11761;SDS011;5938;47.098;15.474;2024-03-25T20:27:46;30.90;;;3.73;;
11761;SDS011;5938;47.098;15.474;2024-03-25T20:31:52;31.30;;;3.40;;
11761;SDS011;5938;47.098;15.474;2024-03-25T20:35:55;28.80;;;3.37;;
11761;SDS011;5938;47.098;15.474;2024-03-25T20:40:12;28.80;;;3.53;;
11761;SDS011;5938;47.098;15.474;2024-03-25T20:44:46;29.30;;;3.30;;
11761;SDS011;5938;47.098;15.474;2024-03-25T20:48:57;28.47;;;3.10;;
11761;SDS011;5938;47.098;15.474;2024-03-25T20:53:04;29.00;;;3.27;;
11761;SDS011;5938;47.098;15.474;2024-03-25T20:57:05;29.13;;;2.67;;
11761;SDS011;5938;47.098;15.474;2024-03-25T21:01:12;31.87;;;2.80;;
11761;SDS011;5938;47.098;15.474;2024-03-25T21:05:21;33.23;;;3.27;;
11761;SDS011;5938;47.098;15.474;2024-03-25T21:09:39;30.10;;;2.53;;
11761;SDS011;5938;47.098;15.474;2024-03-25T21:13:44;32.10;;;3.40;;
11761;SDS011;5938;47.098;15.474;2024-03-25T21:17:46;29.10;;;2.97;;
11761;SDS011;5938;47.098;15.474;2024-03-25T21:21:56;28.37;;;2.60;;
11761;SDS011;5938;47.098;15.474;2024-03-25T21:26:00;28.47;;;2.60;;
11761;SDS011;5938;47.098;15.474;2024-03-25T21:30:04;28.90;;;2.80;;
11761;SDS011;5938;47.098;15.474;2024-03-25T21:34:16;28.23;;;2.40;;
11761;SDS011;5938;47.098;15.474;2024-03-25T21:38:25;30.23;;;3.40;;
11761;SDS011;5938;47.098;15.474;2024-03-25T21:42:34;30.23;;;2.97;;
11761;SDS011;5938;47.098;15.474;2024-03-25T21:46:36;30.20;;;3.70;;
11761;SDS011;5938;47.098;15.474;2024-03-25T21:50:38;31.60;;;2.87;;
11761;SDS011;5938;47.098;15.474;2024-03-25T21:54:54;29.80;;;2.20;;
11761;SDS011;5938;47.098;15.474;2024-03-25T21:58:56;31.40;;;2.80;;
11761;SDS011;5938;47.098;15.474;2024-03-25T22:13:31;28.33;;;2.10;;
11761;SDS011;5938;47.098;15.474;2024-03-25T22:17:32;29.23;;;2.33;;
11761;SDS011;5938;47.098;15.474;2024-03-25T22:21:34;29.10;;;3.23;;
11761;SDS011;5938;47.098;15.474;2024-03-25T22:25:35;30.10;;;2.53;;
11761;SDS011;5938;47.098;15.474;2024-03-25T22:29:38;28.10;;;2.03;;
11761;SDS011;5938;47.098;15.474;2024-03-25T22:33:39;32.13;;;2.47;;
11761;SDS011;5938;47.098;15.474;2024-03-25T22:37:42;28.63;;;2.10;;
11761;SDS011;5938;47.098;15.474;2024-03-25T22:41:44;30.80;;;2.70;;
11761;SDS011;5938;47.098;15.474;2024-03-25T22:45:53;29.60;;;2.57;;
11761;SDS011;5938;47.098;15.474;2024-03-25T22:49:55;29.70;;;2.70;;
11761;SDS011;5938;47.098;15.474;2024-03-25T22:53:56;29.10;;;2.27;;
11761;SDS011;5938;47.098;15.474;2024-03-25T22:57:58;30.83;;;2.37;;
11761;SDS011;5938;47.098;15.474;2024-03-25T23:02:01;29.83;;;2.40;;
11761;SDS011;5938;47.098;15.474;2024-03-25T23:06:03;29.70;;;2.53;;
11761;SDS011;5938;47.098;15.474;2024-03-25T23:10:05;29.27;;;2.43;;
11761;SDS011;5938;47.098;15.474;2024-03-25T23:14:07;32.20;;;3.37;;
11761;SDS011;5938;47.098;15.474;2024-03-25T23:18:10;29.50;;;2.10;;
11761;SDS011;5938;47.098;15.474;2024-03-25T23:22:11;30.90;;;2.80;;
11761;SDS011;5938;47.098;15.474;2024-03-25T23:26:13;30.77;;;2.70;;
11761;SDS011;5938;47.098;15.474;2024-03-25T23:30:15;30.67;;;2.93;;
11761;SDS011;5938;47.098;15.474;2024-03-25T23:34:17;29.87;;;2.87;;
11761;SDS011;5938;47.098;15.474;2024-03-25T23:38:19;29.43;;;2.30;;
11761;SDS011;5938;47.098;15.474;2024-03-25T23:42:20;31.27;;;3.20;;
11761;SDS011;5938;47.098;15.474;2024-03-25T23:46:22;31.87;;;3.10;;
11761;SDS011;5938;47.098;15.474;2024-03-25T23:50:25;30.80;;;3.03;;
11761;SDS011;5938;47.098;15.474;2024-03-25T23:54:26;30.73;;;2.90;;
11761;SDS011;5938;47.098;15.474;2024-03-25T23:58:27;30.90;;;3.30;;
